Arrington, Tennessee
Current Conditions -  °F | °C
As of 3:19 PM on Wednesday 17 Dec 2014 (Local Time) from KBNA Reporting Station
Overcast Overcast  
Wind Chill: 39°   Ceiling: 19000
Heat Index: 39°   Visibility: 10mi
Dew Point: 28°   Wind: 0mph
Humidity: 65%   Direction: NA
Pressure: 30.26"   Gusts: NA
Location:  35.87°N, 86.71°W
Report Text: KBNA 172119Z 00000KT 10SM FEW022 BKN190 OVC250 04/M02 A3026 RMK AO2
Loading
Personal Weather Stations






























Interactive Weather Map New forecast layout! Learn more

10-Day Weather Forecast

Advertisements
Track Severe Weather on mobile